createdAt,value
2023-02-04T00:00:35.917Z,-7.99
2023-02-04T00:03:02.474Z,-7.89
2023-02-04T00:05:29.109Z,-7.91
2023-02-04T00:07:55.652Z,-7.96
2023-02-04T00:10:22.155Z,-8.12
2023-02-04T00:12:48.678Z,-8.15
2023-02-04T00:15:15.463Z,-7.95
2023-02-04T00:17:42.009Z,-7.94
2023-02-04T00:20:08.828Z,-8.19
2023-02-04T00:22:35.342Z,-8.14
2023-02-04T00:25:02.562Z,-8.13
2023-02-04T00:27:29.049Z,-8.05
2023-02-04T00:29:57.511Z,-8.01
2023-02-04T00:32:24.166Z,-8.28
2023-02-04T00:34:50.701Z,-8.04
2023-02-04T00:37:17.176Z,-8.03
2023-02-04T00:39:43.650Z,-8.22
2023-02-04T00:42:10.156Z,-8.29
2023-02-04T00:44:36.855Z,-8.22
2023-02-04T00:47:03.769Z,-8.20
2023-02-04T00:49:30.413Z,-7.98
2023-02-04T00:51:56.981Z,-8.08
2023-02-04T00:54:24.757Z,-8.13
2023-02-04T00:56:51.255Z,-8.20
2023-02-04T00:59:18.923Z,-8.16
2023-02-04T01:01:45.404Z,-8.17
2023-02-04T01:04:11.962Z,-8.12
2023-02-04T01:06:38.455Z,-8.08
2023-02-04T01:09:05.229Z,-8.13
2023-02-04T01:11:33.154Z,-8.13
2023-02-04T01:13:59.973Z,-8.08
2023-02-04T01:16:26.729Z,-8.05
2023-02-04T01:18:55.934Z,-7.84
2023-02-04T01:21:25.270Z,-8.06
2023-02-04T01:23:52.448Z,-8.02
2023-02-04T01:26:19.900Z,-7.88
2023-02-04T01:28:48.033Z,-7.95
2023-02-04T01:31:15.307Z,-8.05
2023-02-04T01:33:43.265Z,-8.10
2023-02-04T01:36:09.756Z,-8.16
2023-02-04T01:38:37.495Z,-8.21
2023-02-04T01:41:04.882Z,-8.57
2023-02-04T01:43:33.171Z,-8.61
2023-02-04T01:45:59.877Z,-8.45
2023-02-04T01:48:26.558Z,-8.40
2023-02-04T01:50:57.190Z,-8.47
2023-02-04T01:53:24.904Z,-8.56
2023-02-04T01:55:53.678Z,-8.70
2023-02-04T01:58:20.186Z,-8.53
2023-02-04T02:00:47.944Z,-8.49
2023-02-04T02:03:14.702Z,-8.37
2023-02-04T02:05:45.577Z,-8.66
2023-02-04T02:08:12.996Z,-8.76
2023-02-04T02:10:40.857Z,-8.92
2023-02-04T02:13:08.528Z,-8.74
2023-02-04T02:15:35.004Z,-8.61
2023-02-04T02:18:01.562Z,-8.60
2023-02-04T02:20:29.854Z,-8.46
2023-02-04T02:22:56.465Z,-8.47
2023-02-04T02:25:24.686Z,-8.38
2023-02-04T02:27:53.980Z,-8.34
2023-02-04T02:30:20.616Z,-8.34
2023-02-04T02:32:49.375Z,-8.44
2023-02-04T02:35:16.156Z,-8.40
2023-02-04T02:37:44.216Z,-8.54
2023-02-04T02:40:12.552Z,-8.48
2023-02-04T02:42:40.329Z,-8.41
2023-02-04T02:45:12.062Z,-8.50
2023-02-04T02:47:38.918Z,-8.63
2023-02-04T02:50:05.562Z,-8.78
2023-02-04T02:52:32.017Z,-8.64
2023-02-04T02:54:58.488Z,-8.64
2023-02-04T02:57:26.076Z,-8.80
2023-02-04T02:59:53.709Z,-8.78
2023-02-04T03:02:22.875Z,-8.75
2023-02-04T03:04:51.414Z,-8.72
2023-02-04T03:07:18.814Z,-8.82
2023-02-04T03:09:45.541Z,-8.82
2023-02-04T03:12:13.304Z,-8.87
2023-02-04T03:14:39.949Z,-8.88
2023-02-04T03:17:08.417Z,-8.87
2023-02-04T03:19:36.354Z,-8.89
2023-02-04T03:22:04.044Z,-8.85
2023-02-04T03:24:31.122Z,-8.83
2023-02-04T03:26:59.194Z,-8.80
2023-02-04T03:29:25.677Z,-8.84
2023-02-04T03:31:52.210Z,-8.79
2023-02-04T03:34:20.186Z,-8.81
2023-02-04T03:36:46.637Z,-8.84
2023-02-04T03:39:14.307Z,-8.78
2023-02-04T03:41:40.885Z,-8.81
2023-02-04T03:44:08.603Z,-8.76
2023-02-04T03:46:35.168Z,-8.61
2023-02-04T03:49:01.760Z,-8.45
2023-02-04T03:51:28.207Z,-8.39
2023-02-04T03:53:54.785Z,-8.40
2023-02-04T03:56:21.289Z,-8.55
2023-02-04T03:58:47.747Z,-8.70
2023-02-04T04:01:14.822Z,-8.76
2023-02-04T04:03:41.334Z,-8.82
2023-02-04T04:06:10.064Z,-8.87
2023-02-04T04:08:37.314Z,-8.92
2023-02-04T04:11:05.387Z,-8.73
2023-02-04T04:13:31.856Z,-8.62
2023-02-04T04:15:58.433Z,-8.54
2023-02-04T04:18:25.028Z,-8.54
2023-02-04T04:20:51.485Z,-8.52
2023-02-04T04:23:17.969Z,-8.58
2023-02-04T04:25:46.001Z,-8.74
2023-02-04T04:28:12.516Z,-8.83
2023-02-04T04:30:39.242Z,-8.90
2023-02-04T04:33:06.021Z,-9.01
2023-02-04T04:35:32.637Z,-9.14
2023-02-04T04:38:00.367Z,-9.10
2023-02-04T04:40:26.800Z,-9.16
2023-02-04T04:42:54.319Z,-9.21
2023-02-04T04:45:21.125Z,-9.39
2023-02-04T04:47:47.627Z,-9.31
2023-02-04T04:50:14.118Z,-9.18
2023-02-04T04:52:40.886Z,-9.09
2023-02-04T04:55:09.593Z,-9.15
2023-02-04T04:57:37.193Z,-9.16
2023-02-04T05:00:04.460Z,-9.09
2023-02-04T05:02:30.914Z,-9.05
2023-02-04T05:04:57.968Z,-9.09
2023-02-04T05:07:24.693Z,-9.06
2023-02-04T05:09:52.422Z,-9.02
2023-02-04T05:12:18.881Z,-9.00
2023-02-04T05:14:45.438Z,-9.13
2023-02-04T05:17:12.621Z,-9.09
2023-02-04T05:19:39.109Z,-9.08
2023-02-04T05:22:05.744Z,-9.04
2023-02-04T05:24:34.323Z,-9.11
2023-02-04T05:27:02.121Z,-9.10
2023-02-04T05:29:28.587Z,-9.03
2023-02-04T05:31:56.309Z,-8.93
2023-02-04T05:34:22.844Z,-8.82
2023-02-04T05:36:50.526Z,-8.87
2023-02-04T05:39:16.979Z,-8.77
2023-02-04T05:41:43.514Z,-8.74
2023-02-04T05:44:10.106Z,-8.86
2023-02-04T05:46:37.241Z,-8.82
2023-02-04T05:49:04.894Z,-8.85
2023-02-04T05:51:31.349Z,-8.97
2023-02-04T05:53:59.233Z,-8.85
2023-02-04T05:56:25.689Z,-8.82
2023-02-04T05:58:53.367Z,-8.88
2023-02-04T06:01:19.837Z,-8.87
2023-02-04T06:03:46.306Z,-8.82
2023-02-04T06:06:12.766Z,-8.68
2023-02-04T06:08:39.581Z,-8.55
2023-02-04T06:11:06.092Z,-8.90
2023-02-04T06:13:33.747Z,-9.32
2023-02-04T06:16:00.196Z,-9.47
2023-02-04T06:18:26.700Z,-9.29
2023-02-04T06:20:53.154Z,-9.42
2023-02-04T06:23:19.651Z,-9.45
2023-02-04T06:25:48.814Z,-9.38
2023-02-04T06:28:15.342Z,-9.32
2023-02-04T06:30:41.931Z,-9.51
2023-02-04T06:33:08.561Z,-9.91
2023-02-04T06:35:35.013Z,-10.35
2023-02-04T06:38:01.697Z,-9.92
2023-02-04T06:40:28.224Z,-9.66
2023-02-04T06:42:54.676Z,-9.72
2023-02-04T06:45:21.280Z,-9.72
2023-02-04T06:47:47.730Z,-10.58
2023-02-04T06:50:20.058Z,-10.49
2023-02-04T06:52:46.859Z,-10.27
2023-02-04T06:55:15.414Z,-10.04
2023-02-04T06:57:41.999Z,-10.22
2023-02-04T07:00:09.918Z,-10.35
2023-02-04T07:02:37.378Z,-10.20
2023-02-04T07:05:04.018Z,-10.89
2023-02-04T07:07:30.557Z,-10.79
2023-02-04T07:09:57.102Z,-10.29
2023-02-04T07:12:23.687Z,-10.02
2023-02-04T07:14:50.141Z,-9.96
2023-02-04T07:17:16.648Z,-9.88
2023-02-04T07:19:44.643Z,-9.62
2023-02-04T07:22:11.110Z,-9.97
2023-02-04T07:24:39.028Z,-10.74
2023-02-04T07:27:06.063Z,-11.03
2023-02-04T07:29:33.613Z,-10.66
2023-02-04T07:32:01.533Z,-10.24
2023-02-04T07:34:28.164Z,-10.23
2023-02-04T07:36:54.675Z,-10.11
2023-02-04T07:39:21.185Z,-10.46
2023-02-04T07:41:47.633Z,-11.08
2023-02-04T07:44:15.381Z,-10.71
2023-02-04T07:46:41.849Z,-10.28
2023-02-04T07:49:08.375Z,-10.23
2023-02-04T07:51:35.379Z,-10.01
2023-02-04T07:54:01.889Z,-9.82
2023-02-04T07:56:28.392Z,-9.63
2023-02-04T07:58:54.896Z,-9.80
2023-02-04T08:01:21.342Z,-9.88
2023-02-04T08:03:47.846Z,-9.60
2023-02-04T08:06:14.376Z,-9.57
2023-02-04T08:08:40.948Z,-9.76
2023-02-04T08:11:08.815Z,-9.61
2023-02-04T08:13:35.367Z,-9.38
2023-02-04T08:16:03.598Z,-9.24
2023-02-04T08:18:30.546Z,-9.30
2023-02-04T08:20:57.099Z,-9.21
2023-02-04T08:23:23.653Z,-9.01
2023-02-04T08:25:50.715Z,-8.84
2023-02-04T08:28:18.171Z,-9.23
2023-02-04T08:30:44.991Z,-8.83
2023-02-04T08:33:11.489Z,-8.60
2023-02-04T08:35:38.018Z,-8.48
2023-02-04T08:38:04.465Z,-8.60
2023-02-04T08:40:32.726Z,-8.79
2023-02-04T08:42:59.414Z,-8.73
2023-02-04T08:45:26.202Z,-8.72
2023-02-04T08:47:52.665Z,-8.66
2023-02-04T08:50:19.248Z,-8.48
2023-02-04T08:52:45.688Z,-8.34
2023-02-04T08:55:12.499Z,-8.22
2023-02-04T08:57:39.029Z,-8.19
2023-02-04T09:00:05.791Z,-8.11
2023-02-04T09:02:32.296Z,-8.04
2023-02-04T09:04:58.798Z,-7.95
2023-02-04T09:07:25.267Z,-7.88
2023-02-04T09:09:52.902Z,-7.90
2023-02-04T09:12:19.350Z,-7.79
2023-02-04T09:14:45.853Z,-7.76
2023-02-04T09:17:12.390Z,-7.74
2023-02-04T09:19:38.833Z,-7.73
2023-02-04T09:22:06.053Z,-7.70
2023-02-04T09:24:33.043Z,-7.78
2023-02-04T09:27:01.164Z,-7.77
2023-02-04T09:29:28.761Z,-7.70
2023-02-04T09:31:56.489Z,-7.53
2023-02-04T09:34:23.039Z,-7.36
2023-02-04T09:36:50.889Z,-7.25
2023-02-04T09:39:17.567Z,-7.08
2023-02-04T09:41:45.224Z,-6.95
2023-02-04T09:44:19.300Z,-6.95
2023-02-04T09:46:48.692Z,-6.90
2023-02-04T09:49:15.421Z,-6.90
2023-02-04T09:51:43.986Z,-6.86
2023-02-04T09:54:14.861Z,-6.78
2023-02-04T09:56:42.576Z,-6.72
2023-02-04T09:59:14.022Z,-6.70
2023-02-04T10:01:40.891Z,-6.66
2023-02-04T10:04:12.391Z,-6.62
2023-02-04T10:06:39.467Z,-6.57
2023-02-04T10:09:06.138Z,-6.54
2023-02-04T10:11:37.474Z,-6.55
2023-02-04T10:14:03.916Z,-6.59
2023-02-04T10:16:32.182Z,-6.53
2023-02-04T10:19:00.343Z,-6.50
2023-02-04T10:21:27.074Z,-6.46
2023-02-04T10:23:56.037Z,-6.40
2023-02-04T10:26:25.331Z,-6.42
2023-02-04T10:28:58.349Z,-6.42
2023-02-04T10:31:31.067Z,-6.49
2023-02-04T10:34:05.003Z,-6.55
2023-02-04T10:36:31.780Z,-6.56
2023-02-04T10:39:05.205Z,-6.58
2023-02-04T10:41:34.500Z,-6.56
2023-02-04T10:44:05.136Z,-6.50
2023-02-04T10:46:33.252Z,-6.49
2023-02-04T10:49:00.116Z,-6.43
2023-02-04T10:51:27.058Z,-6.36
2023-02-04T10:54:12.196Z,-6.21
2023-02-04T10:56:38.946Z,-6.04
2023-02-04T10:59:06.788Z,-5.96
2023-02-04T11:01:33.443Z,-5.94
2023-02-04T11:03:59.990Z,-5.96
2023-02-04T11:06:26.708Z,-5.85
2023-02-04T11:08:55.509Z,-5.72
2023-02-04T11:11:26.289Z,-5.63
2023-02-04T11:13:54.560Z,-5.59
2023-02-04T11:16:26.037Z,-5.57
2023-02-04T11:18:59.086Z,-5.54
2023-02-04T11:21:25.727Z,-5.49
2023-02-04T11:24:04.326Z,-5.54
2023-02-04T11:26:36.104Z,-5.54
2023-02-04T11:29:02.561Z,-5.48
2023-02-04T11:31:39.104Z,-5.44
2023-02-04T11:34:08.768Z,-5.54
2023-02-04T11:36:35.301Z,-5.54
2023-02-04T11:39:16.907Z,-5.43
2023-02-04T11:41:45.401Z,-5.35
2023-02-04T11:44:12.350Z,-5.26
2023-02-04T11:46:39.005Z,-5.20
2023-02-04T11:49:13.822Z,-5.11
2023-02-04T11:51:40.649Z,-4.97
2023-02-04T11:54:08.626Z,-4.93
2023-02-04T11:56:35.093Z,-5.17
2023-02-04T11:59:01.632Z,-5.17
2023-02-04T12:01:33.095Z,-5.24
2023-02-04T12:04:01.009Z,-5.06
2023-02-04T12:06:30.123Z,-4.95
2023-02-04T12:09:31.076Z,-4.90
2023-02-04T12:11:59.224Z,-5.07
2023-02-04T12:14:32.297Z,-5.08
2023-02-04T12:16:58.788Z,-5.15
2023-02-04T12:19:27.584Z,-4.99
2023-02-04T12:21:54.996Z,-5.31
2023-02-04T12:24:21.854Z,-5.49
2023-02-04T12:26:48.856Z,-5.48
2023-02-04T12:29:16.405Z,-5.30
2023-02-04T12:31:42.989Z,-5.47
2023-02-04T12:34:10.757Z,-5.26
2023-02-04T12:36:37.204Z,-5.05
2023-02-04T12:39:04.728Z,-4.96
2023-02-04T12:41:31.216Z,-4.97
2023-02-04T12:43:58.748Z,-4.83
2023-02-04T12:46:25.294Z,-4.61
2023-02-04T12:48:51.895Z,-4.47
2023-02-04T12:51:18.372Z,-4.57
2023-02-04T12:53:45.032Z,-4.78
2023-02-04T12:56:11.564Z,-4.90
2023-02-04T12:58:38.100Z,-4.73
2023-02-04T13:01:04.875Z,-4.77
2023-02-04T13:03:32.115Z,-5.00
2023-02-04T13:05:58.939Z,-5.12
2023-02-04T13:08:25.465Z,-4.99
2023-02-04T13:10:52.338Z,-4.99
2023-02-04T13:13:19.661Z,-5.15
2023-02-04T13:15:47.204Z,-5.21
2023-02-04T13:18:13.765Z,-5.08
2023-02-04T13:20:40.590Z,-5.01
2023-02-04T13:23:07.084Z,-5.21
2023-02-04T13:25:34.952Z,-5.22
2023-02-04T13:28:01.614Z,-5.16
2023-02-04T13:30:28.133Z,-4.91
2023-02-04T13:32:56.411Z,-4.84
2023-02-04T13:35:23.006Z,-4.83
2023-02-04T13:37:49.487Z,-4.71
2023-02-04T13:40:16.108Z,-4.59
2023-02-04T13:42:42.737Z,-4.72
2023-02-04T13:45:12.357Z,-4.81
2023-02-04T13:47:39.757Z,-4.75
2023-02-04T13:50:06.665Z,-4.67
2023-02-04T13:52:34.648Z,-4.76
2023-02-04T13:55:01.368Z,-4.78
2023-02-04T13:57:27.912Z,-4.73
2023-02-04T13:59:54.764Z,-4.50
2023-02-04T14:02:23.665Z,-4.61
2023-02-04T14:04:50.541Z,-4.66
2023-02-04T14:07:17.212Z,-4.71
2023-02-04T14:09:43.804Z,-4.54
2023-02-04T14:12:11.532Z,-4.59
2023-02-04T14:14:38.255Z,-4.68
2023-02-04T14:17:04.706Z,-4.75
2023-02-04T14:19:31.300Z,-4.81
2023-02-04T14:21:58.545Z,-4.76
2023-02-04T14:24:25.223Z,-5.16
2023-02-04T14:26:52.216Z,-5.22
2023-02-04T14:29:19.840Z,-5.29
2023-02-04T14:31:46.410Z,-5.01
2023-02-04T14:34:13.363Z,-5.13
2023-02-04T14:36:39.954Z,-5.48
2023-02-04T14:39:06.424Z,-5.50
2023-02-04T14:41:32.961Z,-5.48
2023-02-04T14:43:59.407Z,-5.35
2023-02-04T14:46:27.095Z,-5.56
2023-02-04T14:48:54.613Z,-5.63
2023-02-04T14:51:21.142Z,-5.53
2023-02-04T14:53:48.695Z,-5.41
2023-02-04T14:56:15.666Z,-5.32
2023-02-04T14:58:43.776Z,-5.45
2023-02-04T15:01:10.236Z,-5.51
2023-02-04T15:03:37.084Z,-5.61
2023-02-04T15:06:03.628Z,-5.48
2023-02-04T15:08:30.166Z,-5.48
2023-02-04T15:10:56.949Z,-5.60
2023-02-04T15:13:24.713Z,-6.51
2023-02-04T15:15:51.224Z,-6.75
2023-02-04T15:18:19.130Z,-7.14
2023-02-04T15:20:45.624Z,-7.56
2023-02-04T15:23:13.202Z,-7.27
2023-02-04T15:25:40.843Z,-7.54
2023-02-04T15:28:08.597Z,-7.38
2023-02-04T15:30:37.274Z,-7.12
2023-02-04T15:33:05.322Z,-7.04
2023-02-04T15:35:31.830Z,-7.07
2023-02-04T15:37:59.344Z,-7.23
2023-02-04T15:40:29.884Z,-7.68
2023-02-04T15:42:56.398Z,-8.04
2023-02-04T15:45:22.901Z,-8.41
2023-02-04T15:47:50.510Z,-8.51
2023-02-04T15:50:17.235Z,-8.17
2023-02-04T15:52:43.744Z,-8.20
2023-02-04T15:55:10.288Z,-8.18
2023-02-04T15:57:36.888Z,-8.61
2023-02-04T16:00:05.128Z,-8.70
2023-02-04T16:02:31.760Z,-8.41
2023-02-04T16:04:58.791Z,-8.52
2023-02-04T16:07:25.243Z,-8.90
2023-02-04T16:09:51.729Z,-8.78
2023-02-04T16:12:18.223Z,-9.00
2023-02-04T16:14:45.869Z,-9.33
2023-02-04T16:17:12.454Z,-9.27
2023-02-04T16:19:39.035Z,-9.59
2023-02-04T16:22:06.362Z,-9.78
2023-02-04T16:24:33.588Z,-9.90
2023-02-04T16:27:00.134Z,-10.07
2023-02-04T16:29:26.935Z,-9.93
2023-02-04T16:31:55.141Z,-9.63
2023-02-04T16:34:21.638Z,-9.24
2023-02-04T16:36:48.209Z,-9.21
2023-02-04T16:39:14.672Z,-9.17
2023-02-04T16:41:41.177Z,-9.28
2023-02-04T16:44:08.815Z,-9.05
2023-02-04T16:46:35.335Z,-9.37
2023-02-04T16:49:01.878Z,-9.57
2023-02-04T16:51:28.607Z,-9.67
2023-02-04T16:53:55.168Z,-9.87
2023-02-04T16:56:21.659Z,-9.75
2023-02-04T16:58:48.577Z,-9.99
2023-02-04T17:01:17.231Z,-10.00
2023-02-04T17:03:44.134Z,-9.96
2023-02-04T17:06:10.669Z,-10.13
2023-02-04T17:08:37.105Z,-10.19
2023-02-04T17:11:22.953Z,-10.62
2023-02-04T17:13:49.398Z,-10.68
2023-02-04T17:16:16.504Z,-10.92
2023-02-04T17:18:42.960Z,-10.93
2023-02-04T17:21:09.542Z,-10.98
2023-02-04T17:23:36.005Z,-11.03
2023-02-04T17:26:04.024Z,-11.07
2023-02-04T17:28:30.648Z,-11.01
2023-02-04T17:30:57.264Z,-11.20
2023-02-04T17:33:23.828Z,-11.40
2023-02-04T17:35:50.477Z,-11.22
2023-02-04T17:38:17.885Z,-11.06
2023-02-04T17:40:44.385Z,-11.04
2023-02-04T17:43:12.034Z,-10.94
2023-02-04T17:45:38.663Z,-10.94
2023-02-04T17:48:05.577Z,-10.93
2023-02-04T17:53:03.398Z,-10.66
2023-02-04T17:55:31.020Z,-10.42
2023-02-04T17:57:59.184Z,-10.24
2023-02-04T18:00:27.551Z,-10.25
2023-02-04T18:02:54.109Z,-10.24
2023-02-04T18:05:22.005Z,-10.22
2023-02-04T18:08:11.705Z,-10.27
2023-02-04T18:10:40.718Z,-10.35
2023-02-04T18:13:12.144Z,-10.45
2023-02-04T18:15:39.764Z,-10.45
2023-02-04T18:18:20.498Z,-10.47
2023-02-04T18:20:47.965Z,-10.66
2023-02-04T18:23:16.786Z,-10.76
2023-02-04T18:25:44.971Z,-10.79
2023-02-04T18:28:16.640Z,-10.53
2023-02-04T18:30:44.949Z,-10.51
2023-02-04T18:33:23.119Z,-10.45
2023-02-04T18:35:52.602Z,-10.41
2023-02-04T18:38:25.283Z,-10.45
2023-02-04T18:41:10.172Z,-10.53
2023-02-04T18:43:39.858Z,-10.63
2023-02-04T18:46:24.428Z,-10.78
2023-02-04T18:48:57.549Z,-10.75
2023-02-04T18:51:26.665Z,-10.50
2023-02-04T18:53:54.858Z,-10.32
2023-02-04T18:56:21.342Z,-10.35
2023-02-04T18:58:49.213Z,-10.44
2023-02-04T19:01:24.095Z,-10.51
2023-02-04T19:03:50.631Z,-10.60
2023-02-04T19:06:26.502Z,-10.60
2023-02-04T19:08:54.219Z,-10.64
2023-02-04T19:11:26.724Z,-10.67
2023-02-04T19:13:55.257Z,-10.84
2023-02-04T19:16:23.668Z,-10.84
2023-02-04T19:18:50.939Z,-10.84
2023-02-04T19:21:22.297Z,-10.86
2023-02-04T19:23:50.565Z,-10.94
2023-02-04T19:26:35.018Z,-11.01
2023-02-04T19:29:22.508Z,-11.09
2023-02-04T19:31:49.787Z,-11.11
2023-02-04T19:34:26.480Z,-11.20
2023-02-04T19:36:54.080Z,-11.11
2023-02-04T19:39:27.733Z,-10.94
2023-02-04T19:41:54.549Z,-11.03
2023-02-04T19:44:33.497Z,-11.13
2023-02-04T19:47:15.946Z,-11.19
2023-02-04T19:49:42.695Z,-10.96
2023-02-04T19:52:21.449Z,-11.00
2023-02-04T19:54:48.014Z,-10.97
2023-02-04T19:57:35.933Z,-10.86
2023-02-04T20:00:03.458Z,-11.03
2023-02-04T20:02:34.950Z,-10.99
2023-02-04T20:05:01.465Z,-11.04
2023-02-04T20:07:29.223Z,-11.11
2023-02-04T20:10:21.890Z,-11.17
2023-02-04T20:12:50.270Z,-11.24
2023-02-04T20:15:17.824Z,-11.10
2023-02-04T20:17:46.981Z,-11.11
2023-02-04T20:20:19.461Z,-11.27
2023-02-04T20:23:06.194Z,-11.32
2023-02-04T20:25:35.858Z,-11.23
2023-02-04T20:28:11.790Z,-11.02
2023-02-04T20:30:38.376Z,-10.77
2023-02-04T20:33:23.963Z,-10.83
2023-02-04T20:35:50.392Z,-10.96
2023-02-04T20:38:17.446Z,-11.03
2023-02-04T20:40:46.962Z,-10.87
2023-02-04T20:43:16.446Z,-10.58
2023-02-04T20:45:57.759Z,-10.37
2023-02-04T20:48:33.008Z,-10.20
2023-02-04T20:51:01.482Z,-10.22
2023-02-04T20:53:32.479Z,-10.36
2023-02-04T20:56:07.056Z,-10.33
2023-02-04T20:58:33.545Z,-10.27
2023-02-04T21:01:01.088Z,-10.14
2023-02-04T21:03:29.496Z,-10.01
2023-02-04T21:05:57.916Z,-9.80
2023-02-04T21:08:27.667Z,-9.67
2023-02-04T21:10:54.729Z,-9.50
2023-02-04T21:13:21.226Z,-9.35
2023-02-04T21:15:49.041Z,-9.27
2023-02-04T21:18:16.818Z,-9.24
2023-02-04T21:20:43.265Z,-9.25
2023-02-04T21:23:09.854Z,-9.04
2023-02-04T21:25:36.527Z,-8.97
2023-02-04T21:28:03.146Z,-8.81
2023-02-04T21:30:30.452Z,-8.60
2023-02-04T21:32:57.423Z,-8.66
2023-02-04T21:35:24.676Z,-8.44
2023-02-04T21:37:55.046Z,-8.40
2023-02-04T21:40:22.089Z,-8.20
2023-02-04T21:42:49.335Z,-8.22
2023-02-04T21:45:18.631Z,-8.30
2023-02-04T21:47:45.423Z,-8.24
2023-02-04T21:50:14.531Z,-8.01
2023-02-04T21:52:41.765Z,-7.86
2023-02-04T21:55:08.819Z,-8.04
2023-02-04T21:57:35.270Z,-7.91
2023-02-04T22:00:02.745Z,-7.86
2023-02-04T22:02:29.308Z,-7.64
2023-02-04T22:04:55.759Z,-7.72
2023-02-04T22:07:22.200Z,-7.66
2023-02-04T22:09:50.087Z,-7.60
2023-02-04T22:12:18.424Z,-7.37
2023-02-04T22:15:04.466Z,-7.33
2023-02-04T22:17:32.397Z,-7.43
2023-02-04T22:19:59.244Z,-7.49
2023-02-04T22:22:25.817Z,-7.37
2023-02-04T22:24:52.437Z,-7.23
2023-02-04T22:27:19.565Z,-7.34
2023-02-04T22:29:47.009Z,-7.23
2023-02-04T22:32:13.502Z,-7.23
2023-02-04T22:34:40.882Z,-7.00
2023-02-04T22:37:07.418Z,-6.97
2023-02-04T22:39:33.934Z,-6.92
2023-02-04T22:42:00.524Z,-6.83
2023-02-04T22:44:27.062Z,-6.71
2023-02-04T22:46:53.807Z,-6.73
2023-02-04T22:49:21.417Z,-7.02
2023-02-04T22:51:47.901Z,-6.97
2023-02-04T22:54:14.410Z,-6.93
2023-02-04T22:56:40.932Z,-6.95
2023-02-04T22:59:07.437Z,-6.90
2023-02-04T23:01:35.019Z,-7.13
2023-02-04T23:04:01.586Z,-7.25
2023-02-04T23:06:29.084Z,-7.28
2023-02-04T23:08:56.629Z,-7.20
2023-02-04T23:11:24.883Z,-7.01
2023-02-04T23:13:52.514Z,-7.12
2023-02-04T23:16:19.559Z,-7.16
2023-02-04T23:18:47.270Z,-7.19
2023-02-04T23:21:14.231Z,-7.17
2023-02-04T23:23:41.009Z,-6.99
2023-02-04T23:26:08.779Z,-6.84
2023-02-04T23:28:35.741Z,-6.89
2023-02-04T23:31:02.330Z,-6.92
2023-02-04T23:33:28.828Z,-6.91
2023-02-04T23:35:55.343Z,-6.89
2023-02-04T23:38:22.980Z,-6.77
2023-02-04T23:40:49.503Z,-6.78
2023-02-04T23:43:16.007Z,-6.85
2023-02-04T23:45:44.331Z,-6.88
2023-02-04T23:48:10.879Z,-6.87
2023-02-04T23:50:37.347Z,-6.95
2023-02-04T23:53:03.952Z,-6.78
2023-02-04T23:55:30.449Z,-6.72
2023-02-04T23:57:56.956Z,-6.70
